Time;durP1;ratioP1;P1;durP2;ratioP2;P2;SDS_P1;SDS_P2;PMS_P1;PMS_P2;Temp;Humidity;BMP_temperature;BMP_pressure;BME280_temperature;BME280_humidity;BME280_pressure;Samples;Min_cycle;Max_cycle;Signal;HPM_P1;HPM_P2
2022/04/26 03:36:07;;;;;;;;;;;;;;;;;;5052061;28;1182;-68
2022/04/26 03:38:33;;;;;;;;;;;;;;;;;;5051020;28;1113;-69
2022/04/26 03:40:59;;;;;;;;;;;;;;;;;;5051889;28;1087;-69
2022/04/26 03:43:26;;;;;;;;;;;;;;;;;;5047190;28;1805;-69
2022/04/26 03:45:52;;;;;;;;;;;;;;;;;;5043198;28;1427;-69
2022/04/26 03:48:20;;;;;;;;;;;;;;;;;;5064035;28;1565;-70
2022/04/26 03:50:46;;;;;;;;;;;;;;;;;;5061269;28;1115;-70
2022/04/26 03:53:12;;;;;;;;;;;;;;;;;;5066890;28;1977;-70
2022/04/26 03:55:39;;;;;;;;;;;;;;;;;;5062673;28;1247;-70
2022/04/26 03:58:05;;;;;;;;;;;;;;;;;;5061894;28;1414;-70
2022/04/26 04:00:31;;;;;;;;;;;;;;;;;;5055614;28;1470;-71
2022/04/26 04:02:57;;;;;;;;;;;;;;;;;;5059789;28;1752;-70
2022/04/26 04:05:25;;;;;;;;;;;;;;;;;;5045837;28;1344;-70
2022/04/26 04:07:51;;;;;;;;;;;;;;;;;;5064329;28;1411;-70
2022/04/26 04:10:17;;;;;;;;;;;;;;;;;;5059685;28;1411;-69
2022/04/26 04:12:43;;;;;;;;;;;;;;;;;;5060749;28;1973;-70
2022/04/26 04:15:10;;;;;;;;;;;;;;;;;;5068319;28;1322;-69
2022/04/26 04:17:36;;;;;;;;;;;;;;;;;;5051416;28;1882;-69
2022/04/26 04:20:02;;;;;;;;;;;;;;;;;;5060029;28;1427;-69
2022/04/26 04:22:30;;;;;;;;;;;;;;;;;;5062205;28;1505;-70
2022/04/26 04:24:56;;;;;;;;;;;;;;;;;;5054057;28;1510;-69
2022/04/26 04:27:22;;;;;;;;;;;;;;;;;;5057788;28;1412;-68
2022/04/26 04:29:51;;;;;;;;;;;;;;;;;;5050540;28;1164;-69
2022/04/26 04:32:17;;;;;;;;;;;;;;;;;;5058632;28;1412;-69
2022/04/26 04:34:44;;;;;;;;;;;;;;;;;;5055522;28;2029;-69
2022/04/26 04:37:10;;;;;;;;;;;;;;;;;;5058318;28;1250;-69
2022/04/26 04:39:37;;;;;;;;;;;;;;;;;;5066280;28;1462;-69
2022/04/26 04:42:05;;;;;;;;;;;;;;;;;;5049903;28;1518;-70
2022/04/26 04:44:31;;;;;;;;;;;;;;;;;;5055693;28;1462;-69
2022/04/26 04:46:59;;;;;;;;;;;;;;;;;;5060822;28;1410;-69
2022/04/26 04:49:25;;;;;;;;;;;;;;;;;;5065656;28;1425;-69
2022/04/26 04:51:51;;;;;;;;;;;;;;;;;;5050408;28;1439;-69
2022/04/26 04:54:17;;;;;;;;;;;;;;;;;;5060070;28;1914;-69
2022/04/26 04:56:45;;;;;;;;;;;;;;;;;;5061546;28;1435;-68
2022/04/26 04:59:11;;;;;;;;;;;;;;;;;;5060452;28;1204;-69
2022/04/26 05:01:38;;;;;;;;;;;;;;;;;;5061487;28;1415;-69
2022/04/26 05:04:04;;;;;;;;;;;;;;;;;;5056749;28;1438;-69
2022/04/26 05:06:30;;;;;;;;;;;;;;;;;;5065068;28;1384;-69
2022/04/26 05:08:58;;;;;;;;;;;;;;;;;;5062312;28;1379;-69
2022/04/26 05:11:24;;;;;;;;;;;;;;;;;;5053212;28;1381;-69
2022/04/26 05:13:52;;;;;;;;;;;;;;;;;;5056390;28;1911;-70
2022/04/26 05:16:18;;;;;;;;;;;;;;;;;;5048299;28;1514;-69
2022/04/26 05:18:44;;;;;;;;;;;;;;;;;;5055039;28;1488;-69
2022/04/26 05:21:10;;;;;;;;;;;;;;;;;;5056516;28;1453;-70
2022/04/26 05:26:20;;;;;;;;;;;;;;;;;;5054433;28;1145;-70
2022/04/26 05:28:46;;;;;;;;;;;;;;;;;;5048834;28;1462;-69
2022/04/26 05:31:14;;;;;;;;;;;;;;;;;;5064542;28;1494;-70
2022/04/26 05:33:40;;;;;;;;;;;;;;;;;;5052330;28;1977;-70
2022/04/26 05:36:07;;;;;;;;;;;;;;;;;;5056681;28;1269;-68
2022/04/26 05:38:34;;;;;;;;;;;;;;;;;;5041087;28;1454;-67
2022/04/26 05:41:00;;;;;;;;;;;;;;;;;;5051999;28;1379;-69
2022/04/26 05:43:26;;;;;;;;;;;;;;;;;;5055963;28;1572;-68
2022/04/26 05:45:53;;;;;;;;;;;;;;;;;;5056149;28;1403;-68
2022/04/26 05:48:20;;;;;;;;;;;;;;;;;;5054683;28;1343;-70
2022/04/26 05:50:46;;;;;;;;;;;;;;;;;;5062117;28;1576;-68
2022/04/26 05:53:12;;;;;;;;;;;;;;;;;;5061801;28;1918;-69
2022/04/26 05:55:39;;;;;;;;;;;;;;;;;;5051624;28;1459;-69
2022/04/26 05:58:06;;;;;;;;;;;;;;;;;;5048102;28;1379;-69
2022/04/26 06:00:32;;;;;;;;;;;;;;;;;;5041962;28;1485;-67
2022/04/26 06:02:58;;;;;;;;;;;;;;;;;;5062475;28;1331;-68
2022/04/26 06:05:25;;;;;;;;;;;;;;;;;;5053231;28;1466;-69
2022/04/26 06:07:52;;;;;;;;;;;;;;;;;;5064486;28;1435;-68
2022/04/26 06:10:18;;;;;;;;;;;;;;;;;;5059038;28;1459;-69
2022/04/26 06:12:45;;;;;;;;;;;;;;;;;;5057414;28;1379;-69
2022/04/26 06:15:11;;;;;;;;;;;;;;;;;;5056542;28;1993;-69
2022/04/26 06:17:37;;;;;;;;;;;;;;;;;;5057714;28;1421;-69
2022/04/26 06:20:05;;;;;;;;;;;;;;;;;;5063247;28;1379;-70
2022/04/26 06:22:33;;;;;;;;;;;;;;;;;;5063696;28;1441;-69
2022/04/26 06:24:59;;;;;;;;;;;;;;;;;;5062381;28;1375;-70
2022/04/26 06:27:25;;;;;;;;;;;;;;;;;;5066918;28;1537;-70
2022/04/26 06:29:51;;;;;;;;;;;;;;;;;;5054488;28;1462;-69
2022/04/26 06:32:18;;;;;;;;;;;;;;;;;;5057333;28;1534;-69
2022/04/26 06:34:44;;;;;;;;;;;;;;;;;;5078332;28;1985;-69
2022/04/26 06:37:12;;;;;;;;;;;;;;;;;;5063863;28;1262;-69
2022/04/26 06:39:40;;;;;;;;;;;;;;;;;;5071420;28;1426;-69
2022/04/26 06:42:06;;;;;;;;;;;;;;;;;;5064176;28;1235;-70
2022/04/26 06:44:32;;;;;;;;;;;;;;;;;;5067297;28;1404;-70
2022/04/26 06:46:59;;;;;;;;;;;;;;;;;;5058750;28;1426;-69
2022/04/26 06:49:25;;;;;;;;;;;;;;;;;;5061770;28;1439;-68
2022/04/26 06:51:51;;;;;;;;;;;;;;;;;;5061383;28;1499;-69
2022/04/26 06:54:17;;;;;;;;;;;;;;;;;;5055550;28;1985;-69
2022/04/26 06:56:46;;;;;;;;;;;;;;;;;;5062912;28;1430;-68
2022/04/26 06:59:12;;;;;;;;;;;;;;;;;;5063909;28;1296;-69
2022/04/26 07:01:38;;;;;;;;;;;;;;;;;;5060619;28;1474;-68
2022/04/26 07:04:04;;;;;;;;;;;;;;;;;;5066072;28;1420;-67
2022/04/26 07:06:30;;;;;;;;;;;;;;;;;;5052024;28;2069;-70
2022/04/26 07:08:57;;;;;;;;;;;;;;;;;;5062928;28;1666;-69
2022/04/26 07:11:23;;;;;;;;;;;;;;;;;;5056310;28;2041;-69
2022/04/26 07:13:52;;;;;;;;;;;;;;;;;;5052041;28;1918;-70
2022/04/26 07:16:18;;;;;;;;;;;;;;;;;;5070177;28;1419;-70
2022/04/26 07:18:44;;;;;;;;;;;;;;;;;;5068631;28;1787;-68
2022/04/26 07:21:10;;;;;;;;;;;;;;;;;;5060478;28;1750;-69
2022/04/26 07:23:37;;;;;;;;;;;;;;;;;;5050194;28;1404;-70
2022/04/26 07:26:03;;;;;;;;;;;;;;;;;;5048243;28;1250;-70
2022/04/26 07:28:29;;;;;;;;;;;;;;;;;;5051238;28;1416;-70
2022/04/26 07:30:56;;;;;;;;;;;;;;;;;;5055216;28;1255;-69
2022/04/26 07:36:09;;;;;;;;;;;;;;;;;;5054276;28;1346;-70
2022/04/26 07:38:35;;;;;;;;;;;;;;;;;;5045878;28;2162;-70
2022/04/26 07:41:02;;;;;;;;;;;;;;;;;;5049225;28;1375;-69
2022/04/26 07:43:28;;;;;;;;;;;;;;;;;;5059840;28;1537;-69
2022/04/26 07:45:54;;;;;;;;;;;;;;;;;;5062220;28;1375;-70
2022/04/26 07:48:22;;;;;;;;;;;;;;;;;;5054795;28;1569;-70
2022/04/26 07:50:48;;;;;;;;;;;;;;;;;;5068468;28;1118;-70
2022/04/26 07:53:15;;;;;;;;;;;;;;;;;;5061000;28;1470;-69
2022/04/26 07:55:41;;;;;;;;;;;;;;;;;;5058938;28;1894;-69
2022/04/26 07:58:07;;;;;;;;;;;;;;;;;;5052096;28;1414;-70
2022/04/26 08:00:33;;;;;;;;;;;;;;;;;;5057809;28;1418;-70
2022/04/26 08:03:02;;;;;;;;;;;;;;;;;;5066256;28;1634;-70
2022/04/26 08:05:29;;;;;;;;;;;;;;;;;;5059893;28;1391;-69
2022/04/26 08:07:56;;;;;;;;;;;;;;;;;;5061370;28;1122;-70
2022/04/26 08:10:22;;;;;;;;;;;;;;;;;;5067184;28;1253;-69
2022/04/26 08:12:48;;;;;;;;;;;;;;;;;;5051207;28;1513;-67
2022/04/26 08:15:14;;;;;;;;;;;;;;;;;;5051337;28;1914;-69
2022/04/26 08:17:41;;;;;;;;;;;;;;;;;;5050704;28;1044;-69
2022/04/26 08:20:10;;;;;;;;;;;;;;;;;;5050886;28;1068;-70
2022/04/26 08:22:37;;;;;;;;;;;;;;;;;;5050328;28;1119;-69
2022/04/26 08:27:47;;;;;;;;;;;;;;;;;;5049167;28;1198;-69
2022/04/26 08:30:14;;;;;;;;;;;;;;;;;;5050723;28;1001;-70
2022/04/26 08:32:40;;;;;;;;;;;;;;;;;;5048430;28;1402;-70
2022/04/26 08:35:07;;;;;;;;;;;;;;;;;;5054741;28;1918;-70
2022/04/26 08:37:33;;;;;;;;;;;;;;;;;;5060202;28;1363;-68
2022/04/26 08:40:04;;;;;;;;;;;;;;;;;;5058120;28;1414;-70
2022/04/26 08:42:34;;;;;;;;;;;;;;;;;;5067063;28;1189;-70
2022/04/26 08:45:00;;;;;;;;;;;;;;;;;;5056230;28;1375;-70
2022/04/26 08:52:56;;;;;;;;;;;;;;;;;;5061445;28;1415;-70
2022/04/26 08:55:24;;;;;;;;;;;;;;;;;;5052757;28;1914;-70
2022/04/26 08:57:50;;;;;;;;;;;;;;;;;;5057543;28;1442;-70
2022/04/26 09:00:16;;;;;;;;;;;;;;;;;;5062569;28;1387;-69
2022/04/26 09:02:42;;;;;;;;;;;;;;;;;;5069141;28;1422;-70
2022/04/26 09:05:12;;;;;;;;;;;;;;;;;;5052310;28;1454;-70
2022/04/26 09:07:39;;;;;;;;;;;;;;;;;;5053345;28;1374;-70
2022/04/26 09:10:08;;;;;;;;;;;;;;;;;;5059503;28;1422;-70
2022/04/26 09:12:57;;;;;;;;;;;;;;;;;;5057485;28;1411;-69
2022/04/26 09:15:24;;;;;;;;;;;;;;;;;;5055678;28;1903;-69
2022/04/26 09:17:50;;;;;;;;;;;;;;;;;;5059733;28;1578;-70
2022/04/26 09:20:18;;;;;;;;;;;;;;;;;;5065440;28;1379;-70
2022/04/26 09:22:45;;;;;;;;;;;;;;;;;;5057652;28;1726;-70
2022/04/26 09:25:11;;;;;;;;;;;;;;;;;;5057749;28;1506;-70
2022/04/26 09:27:38;;;;;;;;;;;;;;;;;;5056696;28;1440;-70
2022/04/26 09:30:09;;;;;;;;;;;;;;;;;;5060837;28;1414;-70
2022/04/26 09:32:45;;;;;;;;;;;;;;;;;;5060394;28;1488;-70
2022/04/26 09:35:17;;;;;;;;;;;;;;;;;;5052708;28;1966;-70
2022/04/26 09:37:44;;;;;;;;;;;;;;;;;;5053634;28;1459;-69
2022/04/26 09:40:11;;;;;;;;;;;;;;;;;;5064825;28;1379;-70
2022/04/26 09:42:37;;;;;;;;;;;;;;;;;;5062293;28;1379;-70
2022/04/26 09:45:04;;;;;;;;;;;;;;;;;;5058369;28;1457;-70
2022/04/26 09:47:36;;;;;;;;;;;;;;;;;;5064328;28;1514;-69
2022/04/26 09:50:05;;;;;;;;;;;;;;;;;;5058024;28;1411;-70
2022/04/26 09:52:31;;;;;;;;;;;;;;;;;;5057595;28;1562;-69
2022/04/26 09:54:57;;;;;;;;;;;;;;;;;;5062702;28;1910;-69
2022/04/26 09:57:24;;;;;;;;;;;;;;;;;;5058166;28;1398;-69
2022/04/26 09:59:50;;;;;;;;;;;;;;;;;;5067569;28;1394;-70
2022/04/26 10:02:16;;;;;;;;;;;;;;;;;;5065271;28;1438;-69
2022/04/26 10:04:46;;;;;;;;;;;;;;;;;;5058685;28;1403;-70
2022/04/26 10:07:13;;;;;;;;;;;;;;;;;;5061488;28;1422;-70
2022/04/26 10:09:39;;;;;;;;;;;;;;;;;;5066225;28;1126;-69
2022/04/26 10:12:05;;;;;;;;;;;;;;;;;;5069555;28;1379;-70
2022/04/26 10:14:32;;;;;;;;;;;;;;;;;;5065395;28;1913;-70
2022/04/26 10:16:58;;;;;;;;;;;;;;;;;;5061483;28;1363;-70
2022/04/26 10:19:35;;;;;;;;;;;;;;;;;;5065241;28;1419;-71
2022/04/26 10:22:03;;;;;;;;;;;;;;;;;;5053813;28;1391;-70
2022/04/26 10:24:29;;;;;;;;;;;;;;;;;;5056322;28;1962;-69
2022/04/26 10:27:15;;;;;;;;;;;;;;;;;;5057578;28;1667;-70
2022/04/26 10:29:44;;;;;;;;;;;;;;;;;;5053315;28;1524;-71
2022/04/26 10:32:10;;;;;;;;;;;;;;;;;;5057036;28;1490;-71
2022/04/26 10:34:39;;;;;;;;;;;;;;;;;;5059224;28;1914;-70
2022/04/26 10:37:24;;;;;;;;;;;;;;;;;;5061913;28;1751;-71
2022/04/26 10:40:00;;;;;;;;;;;;;;;;;;5051054;28;1795;-70
2022/04/26 10:42:27;;;;;;;;;;;;;;;;;;5057020;28;1759;-70
2022/04/26 10:44:57;;;;;;;;;;;;;;;;;;5057331;28;1501;-70
2022/04/26 10:47:30;;;;;;;;;;;;;;;;;;5057348;28;1388;-71
2022/04/26 10:49:58;;;;;;;;;;;;;;;;;;5062801;28;1302;-71
2022/04/26 10:52:47;;;;;;;;;;;;;;;;;;5065722;28;1146;-69
2022/04/26 10:55:15;;;;;;;;;;;;;;;;;;5072808;28;1985;-70
2022/04/26 10:57:42;;;;;;;;;;;;;;;;;;5071843;28;1052;-70
2022/04/26 11:00:09;;;;;;;;;;;;;;;;;;5072092;28;1004;-69
2022/04/26 11:02:36;;;;;;;;;;;;;;;;;;5070517;28;1174;-70
2022/04/26 11:05:03;;;;;;;;;;;;;;;;;;5072165;28;1252;-70
2022/04/26 11:07:29;;;;;;;;;;;;;;;;;;5071343;28;1114;-70
2022/04/26 11:09:56;;;;;;;;;;;;;;;;;;5072371;28;1181;-70
2022/04/26 11:12:24;;;;;;;;;;;;;;;;;;5071469;28;925;-70
2022/04/26 11:14:51;;;;;;;;;;;;;;;;;;5064711;28;1946;-69
2022/04/26 11:17:17;;;;;;;;;;;;;;;;;;5059219;28;1357;-70
2022/04/26 11:19:47;;;;;;;;;;;;;;;;;;5059833;28;1465;-70
2022/04/26 11:22:14;;;;;;;;;;;;;;;;;;5058150;28;1019;-71
2022/04/26 11:30:10;;;;;;;;;;;;;;;;;;5058689;28;1415;-70
2022/04/26 11:32:38;;;;;;;;;;;;;;;;;;5056519;28;1181;-71
2022/04/26 11:35:05;;;;;;;;;;;;;;;;;;5055012;28;1975;-70
2022/04/26 11:37:31;;;;;;;;;;;;;;;;;;5063195;28;1134;-71
2022/04/26 11:39:57;;;;;;;;;;;;;;;;;;5063187;28;1407;-71
2022/04/26 11:42:24;;;;;;;;;;;;;;;;;;5064586;28;1122;-70
2022/04/26 11:44:58;;;;;;;;;;;;;;;;;;5064086;28;1396;-70
2022/04/26 11:47:36;;;;;;;;;;;;;;;;;;5064106;28;1122;-71
2022/04/26 11:50:07;;;;;;;;;;;;;;;;;;5057283;28;1439;-71
2022/04/26 11:52:34;;;;;;;;;;;;;;;;;;5066099;28;1411;-71
2022/04/26 11:55:00;;;;;;;;;;;;;;;;;;5059122;28;1910;-69
2022/04/26 11:57:26;;;;;;;;;;;;;;;;;;5050121;28;1457;-71
2022/04/26 11:59:52;;;;;;;;;;;;;;;;;;5055945;28;1370;-71
2022/04/26 12:02:20;;;;;;;;;;;;;;;;;;5053979;28;1443;-70
2022/04/26 12:04:46;;;;;;;;;;;;;;;;;;5050669;28;1768;-70
2022/04/26 12:07:12;;;;;;;;;;;;;;;;;;5052186;28;1438;-71
2022/04/26 12:09:38;;;;;;;;;;;;;;;;;;5064082;28;1501;-71
2022/04/26 12:12:06;;;;;;;;;;;;;;;;;;5058268;28;1510;-70
2022/04/26 12:14:32;;;;;;;;;;;;;;;;;;5053572;28;1657;-70
2022/04/26 12:16:59;;;;;;;;;;;;;;;;;;5058260;28;1929;-71
2022/04/26 12:19:35;;;;;;;;;;;;;;;;;;5054787;28;1771;-70
2022/04/26 12:22:01;;;;;;;;;;;;;;;;;;5062532;28;1237;-71
2022/04/26 12:24:29;;;;;;;;;;;;;;;;;;5063238;28;1636;-69
2022/04/26 12:26:56;;;;;;;;;;;;;;;;;;5061964;28;1213;-68
2022/04/26 12:29:22;;;;;;;;;;;;;;;;;;5056207;28;1762;-71
2022/04/26 12:31:48;;;;;;;;;;;;;;;;;;5058938;28;1505;-72
2022/04/26 12:34:18;;;;;;;;;;;;;;;;;;5063532;28;1601;-70
2022/04/26 12:36:52;;;;;;;;;;;;;;;;;;5056989;28;1981;-71
2022/04/26 12:39:18;;;;;;;;;;;;;;;;;;5060023;28;1856;-72
2022/04/26 12:41:48;;;;;;;;;;;;;;;;;;5061558;28;1169;-71
2022/04/26 12:44:14;;;;;;;;;;;;;;;;;;5059511;28;1794;-70
2022/04/26 12:46:47;;;;;;;;;;;;;;;;;;5056736;28;1843;-71
2022/04/26 12:52:04;;;;;;;;;;;;;;;;;;5020230;28;1724;-72
2022/04/26 12:54:30;;;;;;;;;;;;;;;;;;5064503;28;1498;-71
2022/04/26 12:56:57;;;;;;;;;;;;;;;;;;5063110;28;1981;-72
2022/04/26 12:59:23;;;;;;;;;;;;;;;;;;5063422;28;1173;-70
2022/04/26 13:01:49;;;;;;;;;;;;;;;;;;5059258;28;1437;-70
2022/04/26 13:04:16;;;;;;;;;;;;;;;;;;5058849;28;1826;-70
2022/04/26 13:06:43;;;;;;;;;;;;;;;;;;5060135;28;1270;-70
2022/04/26 13:09:11;;;;;;;;;;;;;;;;;;5060137;28;1802;-71
2022/04/26 13:11:39;;;;;;;;;;;;;;;;;;5053582;28;1644;-71
2022/04/26 13:14:05;;;;;;;;;;;;;;;;;;5060422;28;1496;-71
2022/04/26 13:16:31;;;;;;;;;;;;;;;;;;5069281;28;1918;-71
2022/04/26 13:18:58;;;;;;;;;;;;;;;;;;5053116;28;1478;-71
2022/04/26 13:21:24;;;;;;;;;;;;;;;;;;5064305;28;1107;-71
2022/04/26 13:23:51;;;;;;;;;;;;;;;;;;5049590;28;1304;-71
2022/04/26 13:26:18;;;;;;;;;;;;;;;;;;5059322;28;1562;-72
2022/04/26 13:28:45;;;;;;;;;;;;;;;;;;5042405;28;1825;-70
2022/04/26 13:31:11;;;;;;;;;;;;;;;;;;5065046;28;1517;-71
2022/04/26 13:33:37;;;;;;;;;;;;;;;;;;5072259;28;1434;-72
2022/04/26 13:36:03;;;;;;;;;;;;;;;;;;5063213;28;1902;-72
2022/04/26 13:38:30;;;;;;;;;;;;;;;;;;5053717;28;1391;-71
2022/04/26 13:40:59;;;;;;;;;;;;;;;;;;5050672;28;1887;-70
2022/04/26 13:43:26;;;;;;;;;;;;;;;;;;5047183;28;1703;-72
2022/04/26 13:45:53;;;;;;;;;;;;;;;;;;5051414;28;1406;-70
2022/04/26 13:48:19;;;;;;;;;;;;;;;;;;5061948;28;1430;-72
2022/04/26 13:50:45;;;;;;;;;;;;;;;;;;5056975;28;1618;-72
2022/04/26 13:53:12;;;;;;;;;;;;;;;;;;5063989;28;1408;-70
2022/04/26 13:55:38;;;;;;;;;;;;;;;;;;5055701;28;1922;-71
2022/04/26 13:58:08;;;;;;;;;;;;;;;;;;5061655;28;1189;-70
2022/04/26 14:00:36;;;;;;;;;;;;;;;;;;5055372;28;1807;-72
2022/04/26 14:03:03;;;;;;;;;;;;;;;;;;5064896;28;1506;-71
2022/04/26 14:05:29;;;;;;;;;;;;;;;;;;5068467;28;1537;-71
2022/04/26 14:07:55;;;;;;;;;;;;;;;;;;5064251;28;1075;-70
2022/04/26 14:10:21;;;;;;;;;;;;;;;;;;5064372;28;1613;-72
2022/04/26 14:12:47;;;;;;;;;;;;;;;;;;5056742;28;1656;-71
2022/04/26 14:23:29;;;;;;;;;;;;;;;;;;5059499;28;1463;-70
2022/04/26 14:25:55;;;;;;;;;;;;;;;;;;5054073;28;1564;-72
2022/04/26 14:28:21;;;;;;;;;;;;;;;;;;5057357;28;1411;-71
2022/04/26 14:30:47;;;;;;;;;;;;;;;;;;5057674;28;1441;-69
2022/04/26 14:33:15;;;;;;;;;;;;;;;;;;5060378;28;1788;-70
2022/04/26 14:35:41;;;;;;;;;;;;;;;;;;5066476;28;1664;-72
2022/04/26 14:38:10;;;;;;;;;;;;;;;;;;5057337;28;1910;-71
2022/04/26 14:40:36;;;;;;;;;;;;;;;;;;5063025;22;3942;-70
2022/04/26 14:43:03;;;;;;;;;;;;;;;;;;5026430;28;1482;-74
2022/04/26 14:45:32;;;;;;;;;;;;;;;;;;5029380;28;1396;-74
2022/04/26 14:47:59;;;;;;;;;;;;;;;;;;5029705;28;1171;-70
2022/04/26 14:50:27;;;;;;;;;;;;;;;;;;5024889;28;1855;-71
2022/04/26 14:52:53;;;;;;;;;;;;;;;;;;5022285;28;1470;-73
2022/04/26 14:55:20;;;;;;;;;;;;;;;;;;5030737;28;1632;-73
2022/04/26 14:57:46;;;;;;;;;;;;;;;;;;5032096;28;1914;-75
2022/04/26 15:00:13;;;;;;;;;;;;;;;;;;5029289;28;1533;-76
2022/04/26 15:02:39;;;;;;;;;;;;;;;;;;5032133;28;1562;-73
2022/04/26 15:05:07;;;;;;;;;;;;;;;;;;5032173;28;1123;-73
2022/04/26 15:09:42;;;;;;;;;;;;;;;;;;5029545;28;1835;-74
2022/04/26 15:10:21;;;;;;;;;;;;;;;;;;5024212;28;1480;-74
2022/04/26 15:18:15;;;;;;;;;;;;;;;;;;5021011;28;1910;-72
2022/04/26 15:20:42;;;;;;;;;;;;;;;;;;5030691;28;1412;-72
2022/04/26 15:23:10;;;;;;;;;;;;;;;;;;5029280;28;1573;-73
2022/04/26 15:25:37;;;;;;;;;;;;;;;;;;5023096;28;1778;-71
2022/04/26 15:28:03;;;;;;;;;;;;;;;;;;5029124;28;1450;-72
2022/04/26 15:30:29;;;;;;;;;;;;;;;;;;5029692;28;1605;-72
2022/04/26 15:32:55;;;;;;;;;;;;;;;;;;5029081;28;1855;-71
2022/04/26 15:35:21;;;;;;;;;;;;;;;;;;5031604;28;1130;-72
2022/04/26 15:37:48;;;;;;;;;;;;;;;;;;5029224;28;1976;-71
2022/04/26 15:40:16;;;;;;;;;;;;;;;;;;5026070;28;1804;-71
2022/04/26 15:42:42;;;;;;;;;;;;;;;;;;5030427;28;1415;-71
2022/04/26 15:45:08;;;;;;;;;;;;;;;;;;5026080;28;1467;-71
2022/04/26 15:47:35;;;;;;;;;;;;;;;;;;5029043;28;1601;-70
2022/04/26 15:50:01;;;;;;;;;;;;;;;;;;5029827;28;1446;-70
2022/04/26 15:52:28;;;;;;;;;;;;;;;;;;5023414;28;1770;-70
2022/04/26 15:54:54;;;;;;;;;;;;;;;;;;5028748;28;1171;-71
2022/04/26 15:57:21;;;;;;;;;;;;;;;;;;5029882;28;1926;-71
2022/04/26 15:59:47;;;;;;;;;;;;;;;;;;5030963;28;1154;-71
2022/04/26 16:02:15;;;;;;;;;;;;;;;;;;5028486;28;1452;-70
2022/04/26 16:04:41;;;;;;;;;;;;;;;;;;5024765;28;1480;-71
2022/04/26 16:07:07;;;;;;;;;;;;;;;;;;5025429;28;1577;-72
2022/04/26 16:20:44;;;;;;;;;;;;;;;;;;5007872;28;1516;-74
2022/04/26 16:23:11;;;;;;;;;;;;;;;;;;5029370;28;1178;-72
2022/04/26 16:25:37;;;;;;;;;;;;;;;;;;5026811;28;1744;-73
2022/04/26 16:28:03;;;;;;;;;;;;;;;;;;5027101;28;1150;-72
2022/04/26 16:30:31;;;;;;;;;;;;;;;;;;5020115;28;1771;-73
2022/04/26 16:32:58;;;;;;;;;;;;;;;;;;5022068;28;1450;-72
2022/04/26 16:35:24;;;;;;;;;;;;;;;;;;5023027;28;1811;-74
2022/04/26 16:37:50;;;;;;;;;;;;;;;;;;5025539;28;1977;-73
2022/04/26 16:40:16;;;;;;;;;;;;;;;;;;5027218;28;1775;-72
2022/04/26 16:42:42;;;;;;;;;;;;;;;;;;5023348;28;1195;-72
2022/04/26 16:45:09;;;;;;;;;;;;;;;;;;5027557;28;1822;-74
2022/04/26 16:47:37;;;;;;;;;;;;;;;;;;5028380;28;1173;-73
2022/04/26 16:50:04;;;;;;;;;;;;;;;;;;5026046;28;1468;-74
2022/04/26 16:52:31;;;;;;;;;;;;;;;;;;5028350;28;1360;-73
2022/04/26 16:54:57;;;;;;;;;;;;;;;;;;5027642;28;1744;-72
2022/04/26 16:57:26;;;;;;;;;;;;;;;;;;5028144;28;1980;-73
2022/04/26 16:59:52;;;;;;;;;;;;;;;;;;5026835;28;1843;-72
2022/04/26 17:02:18;;;;;;;;;;;;;;;;;;5012822;28;1697;-73
2022/04/26 17:04:46;;;;;;;;;;;;;;;;;;5025735;28;1471;-71
2022/04/26 17:07:12;;;;;;;;;;;;;;;;;;5014621;28;1459;-73
2022/04/26 17:09:38;;;;;;;;;;;;;;;;;;5017584;28;1178;-73
2022/04/26 17:12:05;;;;;;;;;;;;;;;;;;5020278;28;1518;-73
2022/04/26 17:14:32;;;;;;;;;;;;;;;;;;5007083;28;1818;-74
2022/04/26 17:16:58;;;;;;;;;;;;;;;;;;5026375;28;1910;-73
2022/04/26 17:19:25;;;;;;;;;;;;;;;;;;5014239;28;1434;-74
2022/04/26 17:21:54;;;;;;;;;;;;;;;;;;5016021;28;1744;-74
2022/04/26 17:27:05;;;;;;;;;;;;;;;;;;5025962;28;1616;-73
2022/04/26 17:29:31;;;;;;;;;;;;;;;;;;5019199;28;1526;-73
2022/04/26 17:31:57;;;;;;;;;;;;;;;;;;5025280;28;1676;-74
2022/04/26 17:34:24;;;;;;;;;;;;;;;;;;5022649;28;1604;-73
2022/04/26 17:36:50;;;;;;;;;;;;;;;;;;5017276;28;1922;-72
2022/04/26 17:39:18;;;;;;;;;;;;;;;;;;5019029;28;1573;-73
2022/04/26 17:41:46;;;;;;;;;;;;;;;;;;5026418;28;1545;-72
2022/04/26 17:44:13;;;;;;;;;;;;;;;;;;5026525;28;1537;-73
2022/04/26 17:46:40;;;;;;;;;;;;;;;;;;5026253;28;1585;-74
2022/04/26 17:49:06;;;;;;;;;;;;;;;;;;5019480;28;1165;-73
2022/04/26 17:51:33;;;;;;;;;;;;;;;;;;5026644;28;1720;-73
2022/04/26 17:56:44;;;;;;;;;;;;;;;;;;5026546;28;1565;-73
2022/04/26 17:59:11;;;;;;;;;;;;;;;;;;5027732;28;1977;-72
2022/04/26 18:01:37;;;;;;;;;;;;;;;;;;5019037;28;1835;-72
2022/04/26 18:04:03;;;;;;;;;;;;;;;;;;5027191;28;1143;-72
2022/04/26 18:06:30;;;;;;;;;;;;;;;;;;5025072;28;1799;-73
2022/04/26 18:08:56;;;;;;;;;;;;;;;;;;5023845;28;1597;-72
2022/04/26 18:11:22;;;;;;;;;;;;;;;;;;5027765;28;1421;-73
2022/04/26 18:13:52;;;;;;;;;;;;;;;;;;5024437;28;1795;-74
2022/04/26 18:16:18;;;;;;;;;;;;;;;;;;5019607;28;1407;-72
2022/04/26 18:18:44;;;;;;;;;;;;;;;;;;5028583;28;1979;-73
2022/04/26 18:21:12;;;;;;;;;;;;;;;;;;5031335;28;1413;-73
2022/04/26 18:23:38;;;;;;;;;;;;;;;;;;5022184;28;1736;-73
2022/04/26 18:26:14;;;;;;;;;;;;;;;;;;5031411;28;1091;-71
2022/04/26 18:28:41;;;;;;;;;;;;;;;;;;5020820;28;1748;-73
2022/04/26 18:31:08;;;;;;;;;;;;;;;;;;5030896;28;1445;-73
2022/04/26 18:33:35;;;;;;;;;;;;;;;;;;5022012;28;1799;-74
2022/04/26 18:36:02;;;;;;;;;;;;;;;;;;5031373;28;1090;-73
2022/04/26 18:38:29;;;;;;;;;;;;;;;;;;5021657;28;1969;-75
2022/04/26 18:40:55;;;;;;;;;;;;;;;;;;5031144;28;1330;-74
2022/04/26 18:43:21;;;;;;;;;;;;;;;;;;5031421;28;830;-73
2022/04/26 18:45:48;;;;;;;;;;;;;;;;;;5030091;28;1677;-73
2022/04/26 18:48:15;;;;;;;;;;;;;;;;;;5011118;28;1119;-73
2022/04/26 18:50:41;;;;;;;;;;;;;;;;;;5018926;28;1752;-74
2022/04/26 18:53:10;;;;;;;;;;;;;;;;;;5030970;28;1118;-73
2022/04/26 18:55:36;;;;;;;;;;;;;;;;;;5021668;28;1748;-73
2022/04/26 18:58:03;;;;;;;;;;;;;;;;;;5030672;28;1926;-73
2022/04/26 19:00:30;;;;;;;;;;;;;;;;;;5021209;28;1736;-72
2022/04/26 19:02:56;;;;;;;;;;;;;;;;;;5027599;28;1359;-75
2022/04/26 19:05:23;;;;;;;;;;;;;;;;;;5023940;28;1792;-74
2022/04/26 19:07:50;;;;;;;;;;;;;;;;;;5026855;28;1170;-70
2022/04/26 19:13:00;;;;;;;;;;;;;;;;;;5021768;28;1736;-73
2022/04/26 19:15:27;;;;;;;;;;;;;;;;;;5029788;28;1806;-72
2022/04/26 19:17:53;;;;;;;;;;;;;;;;;;5029128;28;1906;-74
2022/04/26 19:20:19;;;;;;;;;;;;;;;;;;5028106;28;1541;-72
2022/04/26 19:22:46;;;;;;;;;;;;;;;;;;5020888;28;1598;-74
2022/04/26 19:25:13;;;;;;;;;;;;;;;;;;5025960;28;1441;-73
2022/04/26 19:27:39;;;;;;;;;;;;;;;;;;5029412;28;1302;-73
2022/04/26 19:30:06;;;;;;;;;;;;;;;;;;5026435;28;1665;-73
2022/04/26 19:32:32;;;;;;;;;;;;;;;;;;5021635;28;1384;-74
2022/04/26 19:34:58;;;;;;;;;;;;;;;;;;5030161;28;1149;-73
2022/04/26 19:37:24;;;;;;;;;;;;;;;;;;5028796;28;1915;-73
2022/04/26 19:39:52;;;;;;;;;;;;;;;;;;5030257;28;1099;-73
2022/04/26 19:42:18;;;;;;;;;;;;;;;;;;5027211;28;1740;-73
2022/04/26 19:44:44;;;;;;;;;;;;;;;;;;5029965;28;1231;-74
2022/04/26 19:47:11;;;;;;;;;;;;;;;;;;5028647;28;1767;-73
2022/04/26 19:49:37;;;;;;;;;;;;;;;;;;5029720;28;1487;-73
2022/04/26 19:52:02;;;;;;;;;;;;;;;;;;5024379;28;2057;-74
2022/04/26 19:54:29;;;;;;;;;;;;;;;;;;5031751;28;1110;-73
2022/04/26 19:56:56;;;;;;;;;;;;;;;;;;5031122;28;1118;-71
2022/04/26 19:59:22;;;;;;;;;;;;;;;;;;5031759;28;1914;-72
2022/04/26 20:01:49;;;;;;;;;;;;;;;;;;5031595;28;1278;-73
2022/04/26 20:04:15;;;;;;;;;;;;;;;;;;5030453;28;1435;-73
2022/04/26 20:06:42;;;;;;;;;;;;;;;;;;5031013;28;820;-74
2022/04/26 20:09:08;;;;;;;;;;;;;;;;;;5030547;28;1312;-76
2022/04/26 20:11:34;;;;;;;;;;;;;;;;;;5031167;28;1313;-74
2022/04/26 20:14:02;;;;;;;;;;;;;;;;;;5031460;28;910;-75
2022/04/26 20:16:29;;;;;;;;;;;;;;;;;;5030850;28;1110;-71
2022/04/26 20:18:55;;;;;;;;;;;;;;;;;;5031388;28;1910;-75
2022/04/26 20:21:21;;;;;;;;;;;;;;;;;;5029849;28;1326;-75
2022/04/26 20:23:47;;;;;;;;;;;;;;;;;;5031226;28;898;-75
2022/04/26 20:31:43;;;;;;;;;;;;;;;;;;5031024;28;1410;-74
2022/04/26 20:34:09;;;;;;;;;;;;;;;;;;5031048;28;1067;-74
2022/04/26 20:36:36;;;;;;;;;;;;;;;;;;5030817;28;1012;-74
2022/04/26 20:39:02;;;;;;;;;;;;;;;;;;5030372;28;1981;-75
2022/04/26 20:41:28;;;;;;;;;;;;;;;;;;5030957;28;1365;-75
2022/04/26 20:43:54;;;;;;;;;;;;;;;;;;5044413;22;3581;-71
2022/04/26 20:46:21;;;;;;;;;;;;;;;;;;5018855;28;1821;-71
2022/04/26 20:48:49;;;;;;;;;;;;;;;;;;5017741;28;1895;-71
2022/04/26 20:51:15;;;;;;;;;;;;;;;;;;5024604;28;2014;-70
2022/04/26 20:53:41;;;;;;;;;;;;;;;;;;5022242;28;2073;-72
2022/04/26 20:56:08;;;;;;;;;;;;;;;;;;5030347;28;1085;-70
2022/04/26 20:58:34;;;;;;;;;;;;;;;;;;5030574;28;1914;-71
2022/04/26 21:01:00;;;;;;;;;;;;;;;;;;5030807;28;1083;-70
2022/04/26 21:03:26;;;;;;;;;;;;;;;;;;5030453;28;1416;-70
2022/04/26 21:05:54;;;;;;;;;;;;;;;;;;5030113;28;1123;-71
2022/04/26 21:08:20;;;;;;;;;;;;;;;;;;5030153;28;1067;-69
2022/04/26 21:10:49;;;;;;;;;;;;;;;;;;5030591;28;1004;-71
2022/04/26 21:13:24;;;;;;;;;;;;;;;;;;5030242;28;1306;-70
2022/04/26 21:15:50;;;;;;;;;;;;;;;;;;5030133;28;878;-70
2022/04/26 21:18:16;;;;;;;;;;;;;;;;;;5030301;28;1918;-71
2022/04/26 21:20:42;;;;;;;;;;;;;;;;;;5030405;28;1511;-71
2022/04/26 21:23:10;;;;;;;;;;;;;;;;;;5030005;28;1524;-72
2022/04/26 21:25:36;;;;;;;;;;;;;;;;;;5029867;28;1138;-71
2022/04/26 21:28:03;;;;;;;;;;;;;;;;;;5029977;28;1094;-70
2022/04/26 21:30:29;;;;;;;;;;;;;;;;;;5030176;28;1071;-71
2022/04/26 21:32:56;;;;;;;;;;;;;;;;;;5030230;28;1383;-71
2022/04/26 21:35:22;;;;;;;;;;;;;;;;;;5030269;28;1097;-70
2022/04/26 21:37:48;;;;;;;;;;;;;;;;;;5030330;28;1062;-71